Time;durP1;ratioP1;P1;durP2;ratioP2;P2;SDS_P1;SDS_P2;PMS_P1;PMS_P2;Temp;Humidity;BMP_temperature;BMP_pressure;BME280_temperature;BME280_humidity;BME280_pressure;Samples;Min_cycle;Max_cycle;Signal;HPM_P1;HPM_P2
2023/07/21 00:01:09;;;;;;;7.18;2.92;;;;;;;24.02;52.06;99805.84;5039478;28;20029;-77
2023/07/21 00:03:36;;;;;;;6.70;2.60;;;;;;;23.99;52.42;99807.84;5039344;28;20026;-78
2023/07/21 00:06:06;;;;;;;5.90;2.42;;;;;;;23.96;52.21;99800.81;5040286;28;20018;-78
2023/07/21 00:08:35;;;;;;;6.63;2.67;;;;;;;23.92;52.24;99799.31;5056414;28;20035;-78
2023/07/21 00:11:02;;;;;;;6.63;2.30;;;;;;;23.89;52.42;99792.34;5057813;28;20370;-78
2023/07/21 00:13:27;;;;;;;7.82;2.30;;;;;;;23.87;52.48;99791.59;5059102;28;20056;-77
2023/07/21 00:15:54;;;;;;;7.95;2.30;;;;;;;23.84;52.14;99794.44;5054838;28;20029;-77
2023/07/21 00:18:20;;;;;;;7.75;2.50;;;;;;;23.80;52.61;99791.13;5039233;28;20032;-77
2023/07/21 00:20:46;;;;;;;6.43;2.23;;;;;;;23.82;52.19;99795.53;5044775;28;20028;-78
2023/07/21 00:23:12;;;;;;;6.82;2.42;;;;;;;23.80;52.31;99787.56;5038813;28;20036;-78
2023/07/21 00:25:38;;;;;;;6.93;2.08;;;;;;;23.75;52.60;99793.25;5043313;28;20029;-78
2023/07/21 00:28:03;;;;;;;6.60;2.40;;;;;;;23.69;52.55;99804.41;5038828;28;20048;-78
2023/07/21 00:30:29;;;;;;;5.93;2.08;;;;;;;23.61;52.79;99801.38;5038864;28;20029;-77
2023/07/21 00:32:54;;;;;;;4.60;2.03;;;;;;;23.53;52.97;99790.28;5038931;28;20030;-77
2023/07/21 00:35:19;;;;;;;5.87;2.00;;;;;;;23.45;53.01;99801.53;5038755;28;20040;-77
2023/07/21 00:37:45;;;;;;;7.63;2.40;;;;;;;23.38;53.29;99798.38;5038496;28;20392;-78
2023/07/21 00:40:13;;;;;;;6.85;2.20;;;;;;;23.33;53.52;99797.81;5043389;28;20017;-78
2023/07/21 00:42:38;;;;;;;5.63;2.00;;;;;;;23.32;53.40;99796.09;5037331;28;20037;-78
2023/07/21 00:45:04;;;;;;;6.03;2.00;;;;;;;23.29;53.29;99796.31;5048902;28;20035;-78
2023/07/21 00:47:30;;;;;;;5.87;1.80;;;;;;;23.28;53.18;99794.56;5038553;28;20029;-78
2023/07/21 00:49:56;;;;;;;5.45;1.77;;;;;;;23.24;53.71;99807.31;5037382;28;20021;-78
2023/07/21 00:52:23;;;;;;;6.78;2.10;;;;;;;23.19;53.84;99812.97;5038508;28;20021;-78
2023/07/21 00:54:48;;;;;;;6.07;1.83;;;;;;;23.19;53.64;99814.81;5040844;28;20025;-78
2023/07/21 00:57:16;;;;;;;5.65;1.85;;;;;;;23.15;53.73;99822.19;5053304;28;20382;-78
2023/07/21 00:59:41;;;;;;;4.47;1.48;;;;;;;23.11;53.81;99809.91;5055585;28;20032;-78
2023/07/21 01:02:07;;;;;;;5.10;1.70;;;;;;;23.03;53.78;99817.56;5037259;28;20043;-77
2023/07/21 01:04:32;;;;;;;6.83;1.70;;;;;;;22.98;54.06;99808.97;5036740;28;20078;-78
2023/07/21 01:06:59;;;;;;;5.10;1.70;;;;;;;22.96;53.78;99808.19;5046818;28;20040;-78
2023/07/21 01:09:27;;;;;;;6.78;1.92;;;;;;;22.96;54.07;99811.75;5046706;28;20104;-78
2023/07/21 01:11:53;;;;;;;7.47;1.92;;;;;;;22.99;54.10;99813.38;5054259;28;20401;-78
2023/07/21 01:14:19;;;;;;;11.10;2.00;;;;;;;22.99;54.54;99808.00;5037579;28;20022;-78
2023/07/21 01:16:46;;;;;;;6.07;1.90;;;;;;;22.95;54.69;99812.72;5044870;28;20033;-78
2023/07/21 01:19:16;;;;;;;5.35;1.63;;;;;;;22.90;54.99;99806.75;5037731;28;20044;-78
2023/07/21 01:21:55;;;;;;;7.57;1.97;;;;;;;22.82;55.84;99818.00;5044914;28;20056;-78
2023/07/21 01:24:29;;;;;;;5.45;1.73;;;;;;;22.78;55.82;99819.13;5041829;28;20021;-78
2023/07/21 01:26:55;;;;;;;6.18;2.03;;;;;;;22.72;55.96;99809.66;5037926;28;20030;-78
2023/07/21 01:29:23;;;;;;;5.55;1.80;;;;;;;22.74;55.65;99813.09;5044277;28;20021;-78
2023/07/21 01:31:50;;;;;;;6.55;2.10;;;;;;;22.77;55.75;99809.34;5056325;28;20028;-78
2023/07/21 01:34:16;;;;;;;5.80;1.87;;;;;;;22.75;55.70;99805.91;5057933;28;20076;-78
2023/07/21 01:36:42;;;;;;;5.60;1.83;;;;;;;22.72;55.77;99806.97;5055895;28;20032;-78
2023/07/21 01:39:08;;;;;;;6.95;1.80;;;;;;;22.68;55.77;99807.25;5058067;28;20481;-77
2023/07/21 01:41:35;;;;;;;7.65;1.80;;;;;;;22.65;55.81;99806.47;5042704;28;20474;-78
2023/07/21 01:44:01;;;;;;;5.47;1.90;;;;;;;22.64;55.97;99801.19;5044125;28;20032;-77
2023/07/21 01:46:26;;;;;;;6.35;1.90;;;;;;;22.62;55.61;99808.47;5042173;28;20025;-78
2023/07/21 01:48:52;;;;;;;6.03;1.70;;;;;;;22.60;55.74;99800.53;5037658;28;20103;-78
2023/07/21 01:51:20;;;;;;;5.45;1.88;;;;;;;22.63;55.86;99805.72;5037259;28;20029;-78
2023/07/21 01:53:50;;;;;;;5.93;1.60;;;;;;;22.53;55.74;99793.81;5041212;28;20462;-78
2023/07/21 01:56:24;;;;;;;5.30;1.50;;;;;;;22.44;55.98;99805.09;5038425;28;20045;-78
2023/07/21 01:58:52;;;;;;;4.80;1.60;;;;;;;22.40;55.77;99799.03;5045891;28;20032;-78
2023/07/21 02:01:19;;;;;;;5.45;1.88;;;;;;;22.35;55.90;99801.16;5038625;28;20025;-77
2023/07/21 02:03:47;;;;;;;4.90;1.55;;;;;;;22.29;55.81;99797.00;5042855;28;20021;-78
2023/07/21 02:06:16;;;;;;;5.22;1.63;;;;;;;22.27;55.90;99806.13;5056620;28;20440;-77
2023/07/21 02:08:42;;;;;;;4.97;1.40;;;;;;;22.18;56.15;99799.50;5052948;28;20023;-78
2023/07/21 02:11:07;;;;;;;5.03;1.63;;;;;;;22.14;56.04;99806.00;5055277;28;20108;-78
2023/07/21 02:13:33;;;;;;;4.53;1.37;;;;;;;22.08;55.98;99800.06;5036952;28;20056;-77
2023/07/21 02:15:59;;;;;;;5.82;1.50;;;;;;;22.04;55.88;99801.16;5044543;28;20061;-77
2023/07/21 02:18:24;;;;;;;4.90;1.53;;;;;;;22.02;55.90;99799.56;5036893;28;20025;-77
2023/07/21 02:20:49;;;;;;;5.73;1.60;;;;;;;22.00;56.04;99796.94;5044998;28;20400;-77
2023/07/21 02:23:15;;;;;;;5.57;1.80;;;;;;;21.99;55.85;99805.94;5037263;28;20028;-77
2023/07/21 02:25:41;;;;;;;4.78;1.52;;;;;;;21.96;55.68;99807.97;5053784;28;20021;-78
2023/07/21 02:28:08;;;;;;;6.00;1.25;;;;;;;21.94;55.80;99802.69;5036784;28;20033;-78
2023/07/21 02:30:33;;;;;;;4.60;1.23;;;;;;;21.89;55.89;99815.50;5036563;28;20116;-78
2023/07/21 02:32:59;;;;;;;6.07;1.73;;;;;;;21.80;56.12;99807.03;5036942;28;20112;-78
2023/07/21 02:35:24;;;;;;;6.32;1.40;;;;;;;21.72;56.15;99806.63;5035694;28;20021;-77
2023/07/21 02:37:50;;;;;;;4.93;1.40;;;;;;;21.69;56.48;99803.25;5035375;28;20511;-78
2023/07/21 02:40:17;;;;;;;7.33;1.40;;;;;;;21.65;56.54;99802.56;5042080;28;20055;-77
2023/07/21 02:42:43;;;;;;;4.57;1.50;;;;;;;21.63;56.68;99804.44;5036947;28;20501;-77
2023/07/21 02:45:09;;;;;;;5.82;1.40;;;;;;;21.63;56.47;99815.16;5047625;28;20378;-78
2023/07/21 02:47:34;;;;;;;5.68;1.50;;;;;;;21.63;56.30;99815.16;5036609;28;20049;-78
2023/07/21 02:50:00;;;;;;;7.27;1.60;;;;;;;21.57;56.92;99820.84;5036577;28;20115;-78
2023/07/21 02:52:27;;;;;;;5.50;1.40;;;;;;;21.52;56.75;99813.94;5036456;28;20055;-78
2023/07/21 02:54:53;;;;;;;6.10;1.50;;;;;;;21.50;56.78;99823.88;5039172;28;20129;-78
2023/07/21 02:57:18;;;;;;;7.20;1.37;;;;;;;21.50;57.02;99823.88;5052774;28;20080;-78
2023/07/21 02:59:45;;;;;;;6.07;1.60;;;;;;;21.46;56.80;99816.09;5043590;28;20112;-77
2023/07/21 03:02:11;;;;;;;5.38;1.70;;;;;;;21.44;57.20;99813.53;5045502;28;20052;-77
2023/07/21 03:04:42;;;;;;;6.10;1.20;;;;;;;21.40;57.11;99814.66;5035349;28;20474;-78
2023/07/21 03:07:07;;;;;;;5.20;1.50;;;;;;;21.38;57.37;99811.22;5046869;28;20101;-78
2023/07/21 03:09:33;;;;;;;3.80;1.20;;;;;;;21.36;57.29;99813.97;5043717;28;20068;-78
2023/07/21 03:11:59;;;;;;;6.17;1.50;;;;;;;21.32;57.54;99828.47;5054227;28;20025;-78
2023/07/21 03:14:25;;;;;;;7.07;1.50;;;;;;;21.30;57.63;99825.03;5036212;28;20056;-77
2023/07/21 03:16:50;;;;;;;5.40;1.30;;;;;;;21.28;57.64;99824.25;5043055;28;20029;-78
2023/07/21 03:19:16;;;;;;;5.97;1.30;;;;;;;21.25;57.84;99829.78;5036132;28;20091;-78
2023/07/21 03:21:42;;;;;;;7.37;1.50;;;;;;;21.28;57.78;99823.38;5042676;28;20107;-77
2023/07/21 03:24:08;;;;;;;5.72;1.42;;;;;;;21.28;57.73;99828.72;5040132;28;20018;-77
2023/07/21 03:26:34;;;;;;;4.75;1.40;;;;;;;21.28;57.87;99826.06;5035067;28;20060;-78
2023/07/21 03:29:00;;;;;;;7.70;1.70;;;;;;;21.23;58.13;99835.22;5035249;28;20029;-78
2023/07/21 03:31:25;;;;;;;5.80;1.27;;;;;;;21.15;58.25;99840.13;5034792;28;20029;-78
2023/07/21 03:33:51;;;;;;;5.25;1.20;;;;;;;21.08;58.53;99836.03;5036305;28;20052;-77
2023/07/21 03:36:16;;;;;;;5.60;1.30;;;;;;;21.07;58.27;99834.31;5035811;28;20589;-78
2023/07/21 03:38:42;;;;;;;4.05;1.20;;;;;;;21.08;58.55;99841.41;5039753;28;20025;-78
2023/07/21 03:41:09;;;;;;;5.57;1.40;;;;;;;21.06;58.53;99843.31;5044531;28;20032;-77
2023/07/21 03:43:37;;;;;;;7.05;1.60;;;;;;;21.05;58.66;99852.28;5040432;28;20397;-78
2023/07/21 03:46:04;;;;;;;6.07;1.60;;;;;;;21.03;58.45;99847.03;5049038;28;20021;-78
2023/07/21 03:48:31;;;;;;;5.47;1.57;;;;;;;21.02;58.30;99847.09;5039627;28;20021;-77
2023/07/21 03:50:57;;;;;;;7.35;1.50;;;;;;;20.98;58.57;99851.78;5038185;28;20028;-77
2023/07/21 03:53:24;;;;;;;5.70;1.50;;;;;;;20.90;58.95;99854.84;5039504;28;20490;-78
2023/07/21 03:55:50;;;;;;;5.30;1.30;;;;;;;20.84;58.99;99849.81;5050160;28;20128;-78
2023/07/21 03:58:15;;;;;;;6.77;1.40;;;;;;;20.77;59.08;99857.28;5051245;28;20073;-78
2023/07/21 04:00:45;;;;;;;6.30;1.42;;;;;;;20.71;58.88;99864.78;5039523;28;20029;-78
2023/07/21 04:03:12;;;;;;;6.97;1.50;;;;;;;20.66;58.95;99865.00;5038477;28;20037;-78
2023/07/21 04:05:37;;;;;;;9.07;1.60;;;;;;;20.67;59.33;99869.41;5039483;28;20032;-78
2023/07/21 04:08:04;;;;;;;5.37;1.30;;;;;;;20.70;59.26;99868.41;5057127;28;20037;-77
2023/07/21 04:10:30;;;;;;;7.00;1.58;;;;;;;20.74;58.78;99872.63;5054114;28;20498;-78
2023/07/21 04:12:56;;;;;;;6.70;1.53;;;;;;;20.70;59.03;99873.75;5042809;28;20030;-78
2023/07/21 04:15:22;;;;;;;6.88;1.58;;;;;;;20.70;58.82;99879.09;5044554;28;20060;-77
2023/07/21 04:17:48;;;;;;;6.55;1.50;;;;;;;20.73;58.79;99881.63;5040649;28;20035;-77
2023/07/21 04:20:13;;;;;;;8.20;1.40;;;;;;;20.76;58.72;99876.09;5042638;28;20029;-78
2023/07/21 04:22:39;;;;;;;6.38;1.25;;;;;;;20.81;58.57;99871.38;5042839;28;20448;-78
2023/07/21 04:25:05;;;;;;;4.80;1.40;;;;;;;20.89;58.73;99874.53;5043626;28;20037;-77
2023/07/21 04:27:30;;;;;;;8.68;1.33;;;;;;;20.89;58.87;99882.56;5037940;28;20083;-77
2023/07/21 04:29:56;;;;;;;5.40;1.40;;;;;;;20.82;58.96;99878.47;5039018;28;20033;-77
2023/07/21 04:32:21;;;;;;;7.90;1.40;;;;;;;20.80;59.03;99885.72;5038798;28;20470;-78
2023/07/21 04:34:46;;;;;;;6.15;1.10;;;;;;;20.78;58.93;99888.47;5038875;28;20028;-77
2023/07/21 04:37:13;;;;;;;7.17;1.40;;;;;;;20.76;58.96;99890.34;5038546;28;20041;-77
2023/07/21 04:39:38;;;;;;;7.05;1.50;;;;;;;20.75;59.31;99887.75;5041572;28;20055;-77
2023/07/21 04:42:04;;;;;;;5.20;1.10;;;;;;;20.74;59.01;99891.38;5040285;28;20466;-78
2023/07/21 04:44:29;;;;;;;4.03;1.17;;;;;;;20.72;59.09;99895.94;5047017;28;20059;-78
2023/07/21 04:46:54;;;;;;;3.73;1.10;;;;;;;20.69;59.24;99904.13;5038893;28;20032;-78
2023/07/21 04:49:20;;;;;;;6.78;1.73;;;;;;;20.65;58.99;99893.59;5036490;28;20163;-78
2023/07/21 04:51:45;;;;;;;7.53;1.70;;;;;;;20.69;59.05;99904.13;5038339;28;20421;-77
2023/07/21 04:54:11;;;;;;;5.40;1.40;;;;;;;20.69;59.13;99893.44;5051473;28;20030;-78
2023/07/21 04:56:37;;;;;;;5.47;1.33;;;;;;;20.69;59.08;99894.28;5037512;28;20129;-77
2023/07/21 04:59:03;;;;;;;7.15;1.30;;;;;;;20.68;59.13;99902.41;5045727;28;20065;-78
2023/07/21 05:01:28;;;;;;;6.73;1.50;;;;;;;20.65;59.23;99898.94;5038622;28;20033;-78
2023/07/21 05:03:54;;;;;;;6.50;1.23;;;;;;;20.62;59.72;99896.44;5037350;28;20030;-78
2023/07/21 05:06:19;;;;;;;5.40;1.60;;;;;;;20.65;59.65;99898.94;5041760;28;20024;-78
2023/07/21 05:08:44;;;;;;;5.70;1.20;;;;;;;20.67;59.19;99908.69;5052387;28;20033;-77
2023/07/21 05:11:10;;;;;;;7.37;1.20;;;;;;;20.69;59.31;99907.66;5055761;28;20374;-77
2023/07/21 05:13:37;;;;;;;6.90;1.50;;;;;;;20.71;59.17;99911.13;5038190;28;20040;-78
2023/07/21 05:16:03;;;;;;;5.97;1.65;;;;;;;20.75;59.37;99909.16;5045034;28;20025;-77
2023/07/21 05:18:28;;;;;;;6.07;1.27;;;;;;;20.83;59.14;99906.97;5038290;28;20048;-77
2023/07/21 05:20:54;;;;;;;8.03;1.50;;;;;;;20.89;58.52;99906.66;5045823;28;20707;-77
2023/07/21 05:23:19;;;;;;;5.03;1.45;;;;;;;20.92;58.66;99909.16;5040179;28;20064;-77
2023/07/21 05:25:45;;;;;;;7.53;1.40;;;;;;;20.93;59.06;99910.03;5041705;28;20056;-78
2023/07/21 05:28:10;;;;;;;6.47;1.20;;;;;;;20.91;58.77;99907.44;5038333;28;20088;-77
2023/07/21 05:30:40;;;;;;;7.17;1.40;;;;;;;20.95;58.70;99918.81;5037233;28;20029;-78
2023/07/21 05:33:05;;;;;;;5.93;1.40;;;;;;;20.98;58.88;99915.13;5036691;28;20128;-78
2023/07/21 05:35:31;;;;;;;7.77;1.50;;;;;;;20.98;59.13;99909.78;5037620;28;20029;-78
2023/07/21 05:37:56;;;;;;;4.63;1.37;;;;;;;20.96;58.68;99907.16;5037433;28;20021;-77
2023/07/21 05:40:22;;;;;;;6.27;1.20;;;;;;;20.94;58.94;99917.97;5042407;28;20088;-77
2023/07/21 05:42:47;;;;;;;6.10;1.20;;;;;;;20.95;58.79;99921.50;5037799;28;20021;-78
2023/07/21 05:45:13;;;;;;;5.43;1.50;;;;;;;20.94;58.70;99923.34;5046399;28;20470;-78
2023/07/21 05:47:38;;;;;;;7.40;1.40;;;;;;;20.93;59.17;99926.06;5037683;28;20032;-77
2023/07/21 05:50:04;;;;;;;6.10;1.33;;;;;;;20.98;58.82;99925.84;5053649;28;20067;-77
2023/07/21 05:52:29;;;;;;;6.57;1.53;;;;;;;20.96;59.02;99928.59;5057122;28;20270;-77
2023/07/21 05:54:55;;;;;;;6.70;1.60;;;;;;;20.98;58.83;99920.50;5044724;28;20026;-77
2023/07/21 05:57:20;;;;;;;6.20;1.40;;;;;;;21.00;58.79;99929.31;5044013;28;20041;-77
2023/07/21 05:59:46;;;;;;;6.83;1.80;;;;;;;21.07;58.85;99933.38;5040032;28;20094;-78
2023/07/21 06:02:12;;;;;;;6.43;1.37;;;;;;;21.11;59.08;99929.63;5037503;28;20413;-78
2023/07/21 06:04:37;;;;;;;6.50;1.48;;;;;;;21.06;58.87;99928.97;5037203;28;20022;-78
2023/07/21 06:07:03;;;;;;;6.93;1.47;;;;;;;21.03;58.79;99934.50;5038309;28;20037;-78
2023/07/21 06:09:28;;;;;;;8.27;1.60;;;;;;;21.05;58.89;99932.59;5044367;28;20029;-79
2023/07/21 06:11:54;;;;;;;6.63;1.60;;;;;;;21.14;58.92;99932.13;5054807;28;20265;-77
2023/07/21 06:14:20;;;;;;;6.93;1.42;;;;;;;21.16;58.72;99930.22;5035774;28;20121;-79
2023/07/21 06:16:45;;;;;;;6.53;1.57;;;;;;;21.15;59.10;99933.84;5044043;28;20033;-79
2023/07/21 06:19:10;;;;;;;5.90;1.63;;;;;;;21.08;58.94;99932.41;5036753;28;20072;-79
2023/07/21 06:21:36;;;;;;;5.03;1.60;;;;;;;21.04;59.27;99936.22;5042594;28;20076;-81
2023/07/21 06:24:01;;;;;;;7.43;1.58;;;;;;;21.06;59.36;99939.69;5040920;28;20061;-79
2023/07/21 06:26:27;;;;;;;6.43;1.47;;;;;;;21.12;59.27;99938.50;5035655;28;20033;-78
2023/07/21 06:28:52;;;;;;;4.57;1.33;;;;;;;21.15;58.94;99939.19;5051109;28;20108;-78
2023/07/21 06:31:18;;;;;;;5.07;1.25;;;;;;;21.17;59.00;99942.66;5056785;28;20025;-78
2023/07/21 06:33:44;;;;;;;12.13;1.50;;;;;;;21.19;59.21;99943.44;5040607;28;20038;-79
2023/07/21 06:36:09;;;;;;;7.25;1.60;;;;;;;21.11;59.20;99945.69;5036587;28;20072;-77
2023/07/21 06:38:34;;;;;;;9.70;1.87;;;;;;;21.06;59.38;99947.72;5036886;28;20033;-79
2023/07/21 06:41:01;;;;;;;7.23;1.30;;;;;;;21.09;59.12;99950.22;5041832;28;20036;-78
2023/07/21 06:43:26;;;;;;;8.93;1.52;;;;;;;21.12;59.14;99950.09;5036550;28;20030;-79
2023/07/21 06:45:52;;;;;;;8.93;1.77;;;;;;;21.11;59.52;99948.34;5056034;28;20043;-79
2023/07/21 06:48:18;;;;;;;6.30;1.30;;;;;;;21.13;59.33;99942.91;5056535;28;20412;-81
2023/07/21 06:50:43;;;;;;;6.35;1.73;;;;;;;21.24;59.19;99943.19;5055456;28;20025;-80
2023/07/21 06:53:09;;;;;;;6.80;1.60;;;;;;;21.35;58.81;99947.97;5036757;28;20133;-79
2023/07/21 06:55:34;;;;;;;6.67;1.60;;;;;;;21.46;58.97;99937.53;5044226;28;20122;-79
2023/07/21 06:58:01;;;;;;;6.13;1.50;;;;;;;21.55;58.27;99940.63;5051192;28;20020;-79
2023/07/21 07:00:26;;;;;;;8.45;1.70;;;;;;;21.56;58.55;99943.25;5035303;28;20053;-80
2023/07/21 07:02:53;;;;;;;8.70;1.92;;;;;;;21.59;58.06;99942.22;5037707;28;20038;-81
2023/07/21 07:05:18;;;;;;;5.60;1.47;;;;;;;21.65;57.95;99940.06;5036562;28;20026;-80
2023/07/21 07:07:44;;;;;;;4.63;1.23;;;;;;;21.74;58.04;99946.75;5050377;28;20455;-78
2023/07/21 07:10:10;;;;;;;5.57;1.73;;;;;;;21.83;57.79;99950.72;5048310;28;20162;-78
2023/07/21 07:12:37;;;;;;;6.50;1.80;;;;;;;21.88;57.44;99961.19;5047530;28;20021;-78
2023/07/21 07:15:03;;;;;;;7.40;1.55;;;;;;;21.93;57.29;99953.75;5049871;28;20041;-79
2023/07/21 07:17:28;;;;;;;7.53;1.40;;;;;;;22.00;57.07;99954.28;5039664;28;20429;-79
2023/07/21 07:19:53;;;;;;;6.73;1.23;;;;;;;22.08;57.05;99952.00;5038938;28;20065;-79
2023/07/21 07:22:19;;;;;;;5.53;1.40;;;;;;;22.16;56.85;99948.91;5061455;28;20448;-79
2023/07/21 07:24:44;;;;;;;7.13;1.40;;;;;;;22.18;56.81;99960.41;5052558;28;20025;-80
2023/07/21 07:27:09;;;;;;;5.40;1.40;;;;;;;22.28;56.65;99960.72;5043693;28;20034;-79
2023/07/21 07:29:35;;;;;;;5.53;1.30;;;;;;;22.35;56.49;99952.25;5043136;28;20076;-81
2023/07/21 07:32:01;;;;;;;5.83;1.40;;;;;;;22.47;56.10;99955.19;5043776;28;20036;-80
2023/07/21 07:34:26;;;;;;;6.05;1.35;;;;;;;22.54;55.95;99964.59;5041964;28;20025;-80
2023/07/21 07:36:52;;;;;;;5.60;1.40;;;;;;;22.60;55.93;99960.69;5042920;28;20486;-80
2023/07/21 07:39:18;;;;;;;7.07;1.48;;;;;;;22.60;55.79;99961.56;5038878;28;20044;-80
2023/07/21 07:41:50;;;;;;;6.95;1.42;;;;;;;22.61;55.67;99959.72;5055105;28;20029;-80
2023/07/21 07:44:15;;;;;;;5.93;1.50;;;;;;;22.57;55.51;99956.38;5059666;28;20425;-79
2023/07/21 07:46:41;;;;;;;5.28;1.33;;;;;;;22.58;55.69;99958.09;5045226;28;20030;-79
2023/07/21 07:49:07;;;;;;;4.70;1.20;;;;;;;22.63;55.52;99963.19;5039783;28;20040;-79
2023/07/21 07:51:38;;;;;;;5.90;1.55;;;;;;;22.75;55.26;99953.53;5039461;28;20022;-79
2023/07/21 07:54:05;;;;;;;5.32;1.40;;;;;;;22.87;54.97;99950.13;5040812;28;20084;-79
2023/07/21 07:56:30;;;;;;;6.55;1.40;;;;;;;22.98;54.91;99953.97;5042056;28;20076;-80
2023/07/21 07:58:57;;;;;;;8.30;1.63;;;;;;;23.02;54.54;99952.81;5049373;28;20029;-79
2023/07/21 08:01:22;;;;;;;7.38;1.52;;;;;;;23.04;54.52;99951.75;5041974;28;20104;-79
2023/07/21 08:03:48;;;;;;;8.97;1.50;;;;;;;23.07;54.02;99945.34;5039573;28;20194;-79
2023/07/21 08:06:13;;;;;;;7.78;1.30;;;;;;;23.09;54.08;99941.59;5042161;28;20054;-79
2023/07/21 08:08:40;;;;;;;7.20;1.77;;;;;;;23.18;54.16;99947.38;5055710;28;20770;-80
2023/07/21 08:11:09;;;;;;;4.72;1.40;;;;;;;23.20;53.67;99943.63;5056201;28;20033;-80
2023/07/21 08:13:34;;;;;;;5.20;1.37;;;;;;;23.26;53.55;99939.72;5039355;28;20048;-79
2023/07/21 08:16:00;;;;;;;6.32;1.73;;;;;;;23.29;53.21;99942.22;5046687;28;20025;-79
2023/07/21 08:18:26;;;;;;;4.75;1.30;;;;;;;23.35;53.28;99949.03;5039357;28;20037;-79
2023/07/21 08:20:51;;;;;;;5.80;1.40;;;;;;;23.39;52.83;99947.88;5046952;28;20025;-79
2023/07/21 08:23:17;;;;;;;6.50;1.23;;;;;;;23.36;52.95;99948.91;5038705;28;20444;-79
2023/07/21 08:25:42;;;;;;;8.50;1.48;;;;;;;23.38;52.46;99943.47;5043052;28;20032;-80
2023/07/21 08:28:08;;;;;;;6.50;1.40;;;;;;;23.36;52.75;99948.91;5038881;28;20060;-79
2023/07/21 08:30:35;;;;;;;5.43;1.40;;;;;;;23.37;52.89;99952.50;5038858;28;20033;-80
2023/07/21 08:33:01;;;;;;;5.70;1.42;;;;;;;23.47;52.76;99945.56;5038992;28;20033;-79
2023/07/21 08:35:27;;;;;;;5.90;1.20;;;;;;;23.61;52.44;99947.38;5037424;28;20075;-80
2023/07/21 08:37:53;;;;;;;6.00;1.40;;;;;;;23.73;52.01;99951.09;5047352;28;20028;-80
2023/07/21 08:40:22;;;;;;;5.47;1.23;;;;;;;23.82;51.96;99944.25;5055698;28;20029;-80
2023/07/21 08:42:49;;;;;;;5.90;1.55;;;;;;;23.88;51.83;99943.00;5038693;28;20027;-80
2023/07/21 08:45:15;;;;;;;6.67;1.17;;;;;;;23.92;51.38;99936.47;5049658;28;20063;-80
2023/07/21 08:47:40;;;;;;;6.68;1.20;;;;;;;23.91;50.96;99942.81;5037508;28;20025;-80
2023/07/21 08:50:06;;;;;;;4.53;1.20;;;;;;;23.89;50.96;99940.22;5038498;28;20030;-80
2023/07/21 08:52:32;;;;;;;5.67;1.53;;;;;;;23.98;51.05;99944.13;5038466;28;20770;-80
2023/07/21 08:54:58;;;;;;;5.90;1.40;;;;;;;24.12;50.72;99945.97;5040483;28;20032;-78
2023/07/21 08:57:24;;;;;;;6.20;1.40;;;;;;;24.19;50.87;99935.63;5054810;28;20052;-78
2023/07/21 08:59:50;;;;;;;5.67;1.40;;;;;;;24.24;50.46;99944.28;5040568;28;20030;-78
2023/07/21 09:02:16;;;;;;;4.80;1.35;;;;;;;24.26;50.09;99939.66;5045743;28;20579;-80
2023/07/21 09:04:45;;;;;;;6.87;1.13;;;;;;;24.32;50.08;99936.53;5034999;28;20460;-78
2023/07/21 09:07:11;;;;;;;4.90;1.05;;;;;;;24.40;49.99;99938.72;5049542;28;20397;-78
2023/07/21 09:09:37;;;;;;;4.20;1.20;;;;;;;24.45;49.39;99946.47;5046641;28;20034;-78
2023/07/21 09:12:11;;;;;;;4.47;1.20;;;;;;;24.47;49.53;99944.53;5056321;28;20115;-78
2023/07/21 09:14:36;;;;;;;5.28;1.40;;;;;;;24.57;49.74;99945.66;5037280;28;20025;-78
2023/07/21 09:17:07;;;;;;;6.13;1.40;;;;;;;24.60;49.70;99945.44;5045964;28;20052;-78
2023/07/21 09:19:37;;;;;;;6.57;1.15;;;;;;;24.70;49.42;99944.78;5039481;28;20037;-78
2023/07/21 09:22:03;;;;;;;4.63;1.17;;;;;;;24.74;49.35;99943.63;5045989;28;20080;-78
2023/07/21 09:24:30;;;;;;;5.93;1.37;;;;;;;24.79;49.58;99950.44;5051254;28;20052;-78
2023/07/21 09:27:13;;;;;;;4.93;1.17;;;;;;;24.79;49.72;99952.28;5048364;28;20101;-78
2023/07/21 09:29:44;;;;;;;7.63;1.35;;;;;;;24.89;48.90;99953.38;5044088;28;20029;-79
2023/07/21 09:32:13;;;;;;;5.30;1.10;;;;;;;24.94;48.89;99951.22;5045485;28;20060;-78
2023/07/21 09:34:57;;;;;;;4.88;1.30;;;;;;;24.96;48.28;99956.50;5058062;28;20033;-79
2023/07/21 09:37:27;;;;;;;4.90;1.10;;;;;;;25.04;48.24;99958.66;5045494;28;20482;-80
2023/07/21 09:39:56;;;;;;;6.03;1.30;;;;;;;25.05;47.67;99965.78;5048331;28;20031;-79
2023/07/21 09:42:23;;;;;;;5.13;1.48;;;;;;;25.07;47.82;99964.69;5044623;28;20033;-80
2023/07/21 09:44:49;;;;;;;5.43;1.30;;;;;;;25.10;48.03;99969.00;5040943;28;20397;-79
2023/07/21 09:47:16;;;;;;;5.03;1.30;;;;;;;25.11;47.69;99959.09;5042732;28;20044;-79
2023/07/21 09:49:41;;;;;;;4.63;1.30;;;;;;;25.19;47.26;99957.56;5037606;28;20390;-79
2023/07/21 09:52:10;;;;;;;5.20;1.40;;;;;;;25.21;47.27;99961.03;5035990;28;20029;-79
2023/07/21 09:54:39;;;;;;;4.87;1.20;;;;;;;25.28;47.07;99960.59;5040649;28;20513;-78
2023/07/21 09:57:07;;;;;;;4.03;1.23;;;;;;;25.40;46.95;99953.47;5042001;28;20098;-79
2023/07/21 09:59:36;;;;;;;6.43;1.48;;;;;;;25.48;46.34;99949.28;5042469;28;20037;-79
2023/07/21 10:02:02;;;;;;;4.68;1.33;;;;;;;25.56;47.13;99950.56;5037040;28;20025;-79
2023/07/21 10:04:28;;;;;;;6.55;1.35;;;;;;;25.67;46.87;99947.94;5035878;28;20026;-79
2023/07/21 10:06:58;;;;;;;5.70;1.40;;;;;;;25.79;46.77;99944.38;5045826;28;20031;-79
2023/07/21 10:09:32;;;;;;;5.13;1.42;;;;;;;25.88;46.26;99947.34;5049508;28;20029;-79
2023/07/21 10:12:15;;;;;;;4.20;1.17;;;;;;;25.84;46.07;99962.03;5056917;28;20040;-79
2023/07/21 10:14:41;;;;;;;5.10;1.25;;;;;;;25.78;45.70;99948.03;5037382;28;20035;-79
2023/07/21 10:17:08;;;;;;;4.70;1.03;;;;;;;25.68;46.31;99956.91;5044012;28;20033;-79
2023/07/21 10:19:47;;;;;;;4.82;1.35;;;;;;;25.60;46.45;99954.75;5036724;28;20508;-79
2023/07/21 10:22:25;;;;;;;5.68;1.58;;;;;;;25.59;46.36;99944.94;5045238;28;20030;-79
2023/07/21 10:24:51;;;;;;;5.30;1.20;;;;;;;25.62;46.25;99952.81;5054296;28;20488;-79
2023/07/21 10:27:21;;;;;;;5.95;1.35;;;;;;;25.62;45.96;99947.41;5054527;28;20143;-79
2023/07/21 10:30:20;;;;;;;5.50;1.40;;;;;;;25.75;46.10;99944.69;5041483;28;20076;-79
2023/07/21 10:32:46;;;;;;;4.50;1.10;;;;;;;25.94;45.84;99946.91;5058751;28;20118;-79
2023/07/21 10:35:39;;;;;;;7.05;1.60;;;;;;;26.12;45.59;99939.28;5056633;28;20037;-79
2023/07/21 10:38:13;;;;;;;4.18;1.10;;;;;;;26.34;45.26;99943.94;5057945;28;20111;-79
2023/07/21 10:40:43;;;;;;;6.50;1.50;;;;;;;26.54;45.08;99944.28;5052899;28;20030;-79
2023/07/21 10:43:08;;;;;;;5.37;1.20;;;;;;;26.72;44.78;99939.28;5036860;28;20040;-79
2023/07/21 10:45:34;;;;;;;7.03;1.30;;;;;;;26.86;44.54;99943.63;5049412;28;20025;-80
2023/07/21 10:48:13;;;;;;;4.27;1.00;;;;;;;26.86;43.55;99949.03;5042755;28;20029;-80
2023/07/21 10:50:48;;;;;;;5.53;1.40;;;;;;;26.86;43.41;99943.63;5050445;28;20485;-80
2023/07/21 10:53:15;;;;;;;5.55;1.10;;;;;;;27.02;43.52;99939.75;5063088;28;20083;-79
2023/07/21 10:55:41;;;;;;;5.17;1.17;;;;;;;27.05;43.36;99943.09;5044219;28;20041;-79
2023/07/21 10:58:06;;;;;;;5.47;1.30;;;;;;;27.05;43.24;99944.91;5053062;28;20029;-79
2023/07/21 11:00:49;;;;;;;6.03;1.23;;;;;;;27.03;43.11;99938.75;5041129;28;20036;-79
2023/07/21 11:03:15;;;;;;;5.82;1.30;;;;;;;27.06;42.91;99943.94;5044509;28;20029;-79
2023/07/21 11:05:41;;;;;;;5.07;1.20;;;;;;;27.12;42.81;99937.19;5040623;28;20037;-79
2023/07/21 11:08:11;;;;;;;5.67;1.30;;;;;;;27.15;42.45;99937.81;5063105;28;20350;-79
2023/07/21 11:10:37;;;;;;;5.28;1.25;;;;;;;27.19;42.31;99950.09;5060628;28;20460;-81
2023/07/21 11:13:02;;;;;;;4.10;1.40;;;;;;;27.20;42.02;99941.00;5048310;28;20112;-79
2023/07/21 11:15:28;;;;;;;4.75;1.10;;;;;;;27.23;42.33;99935.34;5050792;28;20022;-79
2023/07/21 11:17:59;;;;;;;6.30;1.23;;;;;;;27.39;42.27;99939.53;5045361;28;20030;-79
2023/07/21 11:20:25;;;;;;;5.38;1.35;;;;;;;27.58;42.43;99941.63;5047684;28;20044;-79
2023/07/21 11:22:50;;;;;;;5.00;1.40;;;;;;;27.63;42.24;99930.47;5042496;28;20029;-79
2023/07/21 11:25:16;;;;;;;5.60;1.43;;;;;;;27.62;41.71;99928.75;5045900;28;20036;-79
2023/07/21 11:27:45;;;;;;;5.30;1.40;;;;;;;27.62;41.81;99928.75;5042677;28;20492;-79
2023/07/21 11:30:16;;;;;;;5.13;1.50;;;;;;;27.60;41.35;99919.84;5043347;28;20059;-80
2023/07/21 11:32:42;;;;;;;6.95;1.50;;;;;;;27.55;41.95;99938.31;5061539;28;20116;-80